sensor_id;sensor_type;location;lat;lon;timestamp;temperature;humidity
11762;DHT22;5938;47.098;15.474;2023-04-24T00:02:13;9.30;99.90
11762;DHT22;5938;47.098;15.474;2023-04-24T00:06:17;9.30;99.90
11762;DHT22;5938;47.098;15.474;2023-04-24T00:10:20;9.30;99.90
11762;DHT22;5938;47.098;15.474;2023-04-24T00:14:25;9.20;99.90
11762;DHT22;5938;47.098;15.474;2023-04-24T00:18:29;9.10;99.90
11762;DHT22;5938;47.098;15.474;2023-04-24T00:22:33;9.00;99.90
11762;DHT22;5938;47.098;15.474;2023-04-24T00:26:36;9.00;99.90
11762;DHT22;5938;47.098;15.474;2023-04-24T00:30:40;8.90;99.90
11762;DHT22;5938;47.098;15.474;2023-04-24T00:34:45;8.80;99.90
11762;DHT22;5938;47.098;15.474;2023-04-24T00:38:48;8.70;99.90
11762;DHT22;5938;47.098;15.474;2023-04-24T00:42:52;8.70;99.90
11762;DHT22;5938;47.098;15.474;2023-04-24T00:46:56;8.60;99.90
11762;DHT22;5938;47.098;15.474;2023-04-24T00:51:02;8.50;99.90
11762;DHT22;5938;47.098;15.474;2023-04-24T00:55:06;8.50;99.90
11762;DHT22;5938;47.098;15.474;2023-04-24T00:59:11;8.50;99.90
11762;DHT22;5938;47.098;15.474;2023-04-24T01:03:16;8.60;99.90
11762;DHT22;5938;47.098;15.474;2023-04-24T01:07:21;8.50;99.90
11762;DHT22;5938;47.098;15.474;2023-04-24T01:11:25;8.50;99.90
11762;DHT22;5938;47.098;15.474;2023-04-24T01:15:28;8.40;99.90
11762;DHT22;5938;47.098;15.474;2023-04-24T01:19:31;8.30;99.90
11762;DHT22;5938;47.098;15.474;2023-04-24T01:23:37;8.30;99.90
11762;DHT22;5938;47.098;15.474;2023-04-24T01:27:40;8.20;99.90
11762;DHT22;5938;47.098;15.474;2023-04-24T01:31:45;8.10;99.90
11762;DHT22;5938;47.098;15.474;2023-04-24T01:35:48;7.90;99.90
11762;DHT22;5938;47.098;15.474;2023-04-24T01:39:53;7.80;99.90
11762;DHT22;5938;47.098;15.474;2023-04-24T01:43:57;7.70;99.90
11762;DHT22;5938;47.098;15.474;2023-04-24T01:48:01;7.70;99.90
11762;DHT22;5938;47.098;15.474;2023-04-24T01:52:04;7.70;99.90
11762;DHT22;5938;47.098;15.474;2023-04-24T01:56:11;7.70;99.90
11762;DHT22;5938;47.098;15.474;2023-04-24T02:00:15;7.70;99.90
11762;DHT22;5938;47.098;15.474;2023-04-24T02:04:18;7.70;99.90
11762;DHT22;5938;47.098;15.474;2023-04-24T02:08:22;7.70;99.90
11762;DHT22;5938;47.098;15.474;2023-04-24T02:12:27;7.70;99.90
11762;DHT22;5938;47.098;15.474;2023-04-24T02:16:30;7.80;99.90
11762;DHT22;5938;47.098;15.474;2023-04-24T02:20:34;7.80;99.90
11762;DHT22;5938;47.098;15.474;2023-04-24T02:24:37;7.80;99.90
11762;DHT22;5938;47.098;15.474;2023-04-24T02:28:42;7.90;99.90
11762;DHT22;5938;47.098;15.474;2023-04-24T02:32:45;7.90;99.90
11762;DHT22;5938;47.098;15.474;2023-04-24T02:36:48;7.90;99.90
11762;DHT22;5938;47.098;15.474;2023-04-24T02:40:52;7.90;99.90
11762;DHT22;5938;47.098;15.474;2023-04-24T02:44:56;7.90;99.90
11762;DHT22;5938;47.098;15.474;2023-04-24T02:49:00;7.70;99.90
11762;DHT22;5938;47.098;15.474;2023-04-24T02:53:03;7.70;99.90
11762;DHT22;5938;47.098;15.474;2023-04-24T02:57:06;7.60;99.90
11762;DHT22;5938;47.098;15.474;2023-04-24T03:01:11;7.40;99.90
11762;DHT22;5938;47.098;15.474;2023-04-24T03:05:14;7.20;99.90
11762;DHT22;5938;47.098;15.474;2023-04-24T03:09:18;7.20;99.90
11762;DHT22;5938;47.098;15.474;2023-04-24T03:13:21;7.10;99.90
11762;DHT22;5938;47.098;15.474;2023-04-24T03:17:26;7.10;99.90
11762;DHT22;5938;47.098;15.474;2023-04-24T03:21:29;7.10;99.90
11762;DHT22;5938;47.098;15.474;2023-04-24T03:25:32;7.00;99.90
11762;DHT22;5938;47.098;15.474;2023-04-24T03:29:35;7.10;99.90
11762;DHT22;5938;47.098;15.474;2023-04-24T03:33:40;7.00;99.90
11762;DHT22;5938;47.098;15.474;2023-04-24T03:37:43;7.00;99.90
11762;DHT22;5938;47.098;15.474;2023-04-24T03:41:46;7.00;99.90
11762;DHT22;5938;47.098;15.474;2023-04-24T03:45:51;7.00;99.90
11762;DHT22;5938;47.098;15.474;2023-04-24T03:49:55;7.00;99.90
11762;DHT22;5938;47.098;15.474;2023-04-24T03:54:00;6.90;99.90
11762;DHT22;5938;47.098;15.474;2023-04-24T03:58:03;6.90;99.90
11762;DHT22;5938;47.098;15.474;2023-04-24T04:02:06;6.90;99.90
11762;DHT22;5938;47.098;15.474;2023-04-24T04:06:11;6.90;99.90
11762;DHT22;5938;47.098;15.474;2023-04-24T04:10:14;7.00;99.90
11762;DHT22;5938;47.098;15.474;2023-04-24T04:14:19;7.10;99.90
11762;DHT22;5938;47.098;15.474;2023-04-24T04:18:22;7.10;99.90
11762;DHT22;5938;47.098;15.474;2023-04-24T04:22:27;7.20;99.90
11762;DHT22;5938;47.098;15.474;2023-04-24T04:26:30;7.20;99.90
11762;DHT22;5938;47.098;15.474;2023-04-24T04:30:34;7.30;99.90
11762;DHT22;5938;47.098;15.474;2023-04-24T04:34:40;7.30;99.90
11762;DHT22;5938;47.098;15.474;2023-04-24T04:38:45;7.40;99.90
11762;DHT22;5938;47.098;15.474;2023-04-24T04:42:48;7.50;99.90
11762;DHT22;5938;47.098;15.474;2023-04-24T04:46:54;7.60;99.90
11762;DHT22;5938;47.098;15.474;2023-04-24T04:50:58;7.70;99.90
11762;DHT22;5938;47.098;15.474;2023-04-24T04:55:03;7.80;99.90
11762;DHT22;5938;47.098;15.474;2023-04-24T04:59:07;7.90;99.90
11762;DHT22;5938;47.098;15.474;2023-04-24T05:03:10;7.90;99.90
11762;DHT22;5938;47.098;15.474;2023-04-24T05:07:22;8.00;99.90
11762;DHT22;5938;47.098;15.474;2023-04-24T05:11:27;8.10;99.90
11762;DHT22;5938;47.098;15.474;2023-04-24T05:15:31;8.10;99.90
11762;DHT22;5938;47.098;15.474;2023-04-24T05:19:34;8.30;99.90
11762;DHT22;5938;47.098;15.474;2023-04-24T05:23:42;8.40;99.90
11762;DHT22;5938;47.098;15.474;2023-04-24T05:27:46;8.50;99.90
11762;DHT22;5938;47.098;15.474;2023-04-24T05:31:50;8.40;99.90
11762;DHT22;5938;47.098;15.474;2023-04-24T05:35:54;8.60;99.90
11762;DHT22;5938;47.098;15.474;2023-04-24T05:39:58;8.70;99.90
11762;DHT22;5938;47.098;15.474;2023-04-24T05:44:02;8.70;99.90
11762;DHT22;5938;47.098;15.474;2023-04-24T05:48:06;8.80;99.90
11762;DHT22;5938;47.098;15.474;2023-04-24T05:52:09;8.90;99.90
11762;DHT22;5938;47.098;15.474;2023-04-24T05:56:13;8.90;99.90
11762;DHT22;5938;47.098;15.474;2023-04-24T06:00:18;9.10;99.90
11762;DHT22;5938;47.098;15.474;2023-04-24T06:04:22;9.30;99.90
11762;DHT22;5938;47.098;15.474;2023-04-24T06:08:29;9.50;99.90
11762;DHT22;5938;47.098;15.474;2023-04-24T06:12:32;9.80;99.90
11762;DHT22;5938;47.098;15.474;2023-04-24T06:16:37;10.10;99.90
11762;DHT22;5938;47.098;15.474;2023-04-24T06:20:41;10.20;99.90
11762;DHT22;5938;47.098;15.474;2023-04-24T06:24:44;10.50;99.90
11762;DHT22;5938;47.098;15.474;2023-04-24T06:28:49;10.80;99.90
11762;DHT22;5938;47.098;15.474;2023-04-24T06:32:53;11.00;99.90
11762;DHT22;5938;47.098;15.474;2023-04-24T06:37:06;11.30;99.90
11762;DHT22;5938;47.098;15.474;2023-04-24T06:41:10;11.70;99.90
11762;DHT22;5938;47.098;15.474;2023-04-24T06:45:13;12.10;99.90
11762;DHT22;5938;47.098;15.474;2023-04-24T06:49:18;12.50;99.90
11762;DHT22;5938;47.098;15.474;2023-04-24T06:53:22;12.90;99.90
11762;DHT22;5938;47.098;15.474;2023-04-24T06:57:25;13.20;99.90
11762;DHT22;5938;47.098;15.474;2023-04-24T07:01:28;13.40;99.90
11762;DHT22;5938;47.098;15.474;2023-04-24T07:05:33;13.80;99.90
11762;DHT22;5938;47.098;15.474;2023-04-24T07:09:37;13.90;99.90
11762;DHT22;5938;47.098;15.474;2023-04-24T07:13:40;13.90;99.90
11762;DHT22;5938;47.098;15.474;2023-04-24T07:17:44;13.40;99.90
11762;DHT22;5938;47.098;15.474;2023-04-24T07:21:49;13.20;99.90
11762;DHT22;5938;47.098;15.474;2023-04-24T07:25:52;13.00;99.90
11762;DHT22;5938;47.098;15.474;2023-04-24T07:29:55;12.70;99.90
11762;DHT22;5938;47.098;15.474;2023-04-24T07:33:59;12.40;99.90
11762;DHT22;5938;47.098;15.474;2023-04-24T07:38:03;12.00;99.90
11762;DHT22;5938;47.098;15.474;2023-04-24T07:42:07;11.70;99.90
11762;DHT22;5938;47.098;15.474;2023-04-24T07:46:11;11.60;99.90
11762;DHT22;5938;47.098;15.474;2023-04-24T07:50:14;11.40;99.90
11762;DHT22;5938;47.098;15.474;2023-04-24T07:54:19;11.30;99.90
11762;DHT22;5938;47.098;15.474;2023-04-24T07:58:22;11.20;99.90
11762;DHT22;5938;47.098;15.474;2023-04-24T08:02:26;11.00;99.90
11762;DHT22;5938;47.098;15.474;2023-04-24T08:06:29;11.10;99.90
11762;DHT22;5938;47.098;15.474;2023-04-24T08:10:35;11.10;99.90
11762;DHT22;5938;47.098;15.474;2023-04-24T08:14:38;11.10;99.90
11762;DHT22;5938;47.098;15.474;2023-04-24T08:18:42;11.20;99.90
11762;DHT22;5938;47.098;15.474;2023-04-24T08:22:45;11.30;99.90
11762;DHT22;5938;47.098;15.474;2023-04-24T08:26:52;11.40;99.90
11762;DHT22;5938;47.098;15.474;2023-04-24T08:30:58;11.40;99.90
11762;DHT22;5938;47.098;15.474;2023-04-24T08:35:01;11.50;99.90
11762;DHT22;5938;47.098;15.474;2023-04-24T08:39:05;11.50;99.90
11762;DHT22;5938;47.098;15.474;2023-04-24T08:43:10;11.40;99.90
11762;DHT22;5938;47.098;15.474;2023-04-24T08:47:15;11.40;99.90
11762;DHT22;5938;47.098;15.474;2023-04-24T08:51:18;11.30;99.90
11762;DHT22;5938;47.098;15.474;2023-04-24T08:55:24;11.30;99.90
11762;DHT22;5938;47.098;15.474;2023-04-24T08:59:29;11.30;99.90
11762;DHT22;5938;47.098;15.474;2023-04-24T09:03:33;11.40;99.90
11762;DHT22;5938;47.098;15.474;2023-04-24T09:07:39;11.40;99.90
11762;DHT22;5938;47.098;15.474;2023-04-24T09:11:44;11.30;99.90
11762;DHT22;5938;47.098;15.474;2023-04-24T09:15:50;11.30;99.90
11762;DHT22;5938;47.098;15.474;2023-04-24T09:19:53;11.30;99.90
11762;DHT22;5938;47.098;15.474;2023-04-24T09:24:04;11.40;99.90
11762;DHT22;5938;47.098;15.474;2023-04-24T09:28:08;11.50;99.90
11762;DHT22;5938;47.098;15.474;2023-04-24T09:32:23;11.60;99.90
11762;DHT22;5938;47.098;15.474;2023-04-24T09:36:28;11.50;99.90
11762;DHT22;5938;47.098;15.474;2023-04-24T09:40:36;11.40;99.90
11762;DHT22;5938;47.098;15.474;2023-04-24T09:44:42;11.20;99.90
11762;DHT22;5938;47.098;15.474;2023-04-24T09:48:47;11.20;99.90
11762;DHT22;5938;47.098;15.474;2023-04-24T09:52:57;11.30;99.90
11762;DHT22;5938;47.098;15.474;2023-04-24T09:57:01;11.30;99.90
11762;DHT22;5938;47.098;15.474;2023-04-24T10:01:04;11.20;99.90
11762;DHT22;5938;47.098;15.474;2023-04-24T10:05:11;11.60;99.90
11762;DHT22;5938;47.098;15.474;2023-04-24T10:09:14;12.10;99.90
11762;DHT22;5938;47.098;15.474;2023-04-24T10:13:18;12.90;99.90
11762;DHT22;5938;47.098;15.474;2023-04-24T10:17:21;13.40;99.90
11762;DHT22;5938;47.098;15.474;2023-04-24T10:21:27;13.80;99.90
11762;DHT22;5938;47.098;15.474;2023-04-24T10:25:31;14.00;99.90
11762;DHT22;5938;47.098;15.474;2023-04-24T10:29:35;13.80;99.90
11762;DHT22;5938;47.098;15.474;2023-04-24T10:33:43;14.20;99.90
11762;DHT22;5938;47.098;15.474;2023-04-24T10:37:52;14.20;99.90
11762;DHT22;5938;47.098;15.474;2023-04-24T10:41:57;14.40;99.90
11762;DHT22;5938;47.098;15.474;2023-04-24T10:46:01;14.60;99.90
11762;DHT22;5938;47.098;15.474;2023-04-24T10:50:08;14.80;99.90
11762;DHT22;5938;47.098;15.474;2023-04-24T10:54:28;15.10;99.90
11762;DHT22;5938;47.098;15.474;2023-04-24T10:58:42;15.30;99.90
11762;DHT22;5938;47.098;15.474;2023-04-24T11:02:47;15.50;99.90
11762;DHT22;5938;47.098;15.474;2023-04-24T11:06:55;15.70;99.90
11762;DHT22;5938;47.098;15.474;2023-04-24T11:11:02;15.70;99.90
11762;DHT22;5938;47.098;15.474;2023-04-24T11:15:10;15.90;99.90
11762;DHT22;5938;47.098;15.474;2023-04-24T11:19:20;15.90;99.90
11762;DHT22;5938;47.098;15.474;2023-04-24T11:23:25;16.00;99.90
11762;DHT22;5938;47.098;15.474;2023-04-24T11:27:32;16.20;99.90
11762;DHT22;5938;47.098;15.474;2023-04-24T11:31:43;16.40;99.90
11762;DHT22;5938;47.098;15.474;2023-04-24T11:35:51;16.60;99.90
11762;DHT22;5938;47.098;15.474;2023-04-24T11:39:56;16.60;99.90
11762;DHT22;5938;47.098;15.474;2023-04-24T11:44:02;16.50;99.90
11762;DHT22;5938;47.098;15.474;2023-04-24T11:48:06;16.30;99.90
11762;DHT22;5938;47.098;15.474;2023-04-24T11:52:09;16.00;99.90
11762;DHT22;5938;47.098;15.474;2023-04-24T11:56:17;15.70;99.90
11762;DHT22;5938;47.098;15.474;2023-04-24T12:00:24;15.60;99.90
11762;DHT22;5938;47.098;15.474;2023-04-24T12:04:38;15.70;99.90
11762;DHT22;5938;47.098;15.474;2023-04-24T12:08:46;15.80;99.90
11762;DHT22;5938;47.098;15.474;2023-04-24T12:12:50;15.50;99.90
11762;DHT22;5938;47.098;15.474;2023-04-24T12:16:55;15.60;99.90
11762;DHT22;5938;47.098;15.474;2023-04-24T12:21:18;15.40;99.90
11762;DHT22;5938;47.098;15.474;2023-04-24T12:25:25;15.30;99.90
11762;DHT22;5938;47.098;15.474;2023-04-24T12:29:29;15.10;99.90
11762;DHT22;5938;47.098;15.474;2023-04-24T12:33:34;15.00;99.90
11762;DHT22;5938;47.098;15.474;2023-04-24T12:37:41;15.30;99.90
11762;DHT22;5938;47.098;15.474;2023-04-24T12:41:54;15.50;99.90
11762;DHT22;5938;47.098;15.474;2023-04-24T12:45:59;16.20;99.90
11762;DHT22;5938;47.098;15.474;2023-04-24T12:50:05;17.10;99.90
11762;DHT22;5938;47.098;15.474;2023-04-24T12:54:09;18.00;98.00
11762;DHT22;5938;47.098;15.474;2023-04-24T12:58:13;18.60;97.70
11762;DHT22;5938;47.098;15.474;2023-04-24T13:02:17;18.90;96.00
11762;DHT22;5938;47.098;15.474;2023-04-24T13:06:22;18.60;98.50
11762;DHT22;5938;47.098;15.474;2023-04-24T13:10:25;18.30;97.20
11762;DHT22;5938;47.098;15.474;2023-04-24T13:14:28;17.70;96.80
11762;DHT22;5938;47.098;15.474;2023-04-24T13:18:32;17.50;99.10
11762;DHT22;5938;47.098;15.474;2023-04-24T13:22:38;17.50;98.60
11762;DHT22;5938;47.098;15.474;2023-04-24T13:26:41;17.60;99.90
11762;DHT22;5938;47.098;15.474;2023-04-24T13:30:44;17.60;98.70
11762;DHT22;5938;47.098;15.474;2023-04-24T13:34:47;17.80;99.80
11762;DHT22;5938;47.098;15.474;2023-04-24T13:38:52;17.80;98.80
11762;DHT22;5938;47.098;15.474;2023-04-24T13:42:55;17.60;98.70
11762;DHT22;5938;47.098;15.474;2023-04-24T13:46:59;17.10;99.80
11762;DHT22;5938;47.098;15.474;2023-04-24T13:51:02;16.90;98.90
11762;DHT22;5938;47.098;15.474;2023-04-24T13:55:08;16.80;99.90
11762;DHT22;5938;47.098;15.474;2023-04-24T13:59:12;16.50;99.90
11762;DHT22;5938;47.098;15.474;2023-04-24T14:03:16;16.40;99.90
11762;DHT22;5938;47.098;15.474;2023-04-24T14:07:19;16.70;99.90
11762;DHT22;5938;47.098;15.474;2023-04-24T14:11:26;16.30;99.90
11762;DHT22;5938;47.098;15.474;2023-04-24T14:15:29;16.20;99.90
11762;DHT22;5938;47.098;15.474;2023-04-24T14:19:33;16.10;99.90
11762;DHT22;5938;47.098;15.474;2023-04-24T14:23:36;15.80;99.90
11762;DHT22;5938;47.098;15.474;2023-04-24T14:27:41;15.50;99.90
11762;DHT22;5938;47.098;15.474;2023-04-24T14:31:44;15.40;99.90
11762;DHT22;5938;47.098;15.474;2023-04-24T14:35:48;15.30;99.90
11762;DHT22;5938;47.098;15.474;2023-04-24T14:39:51;15.20;99.90
11762;DHT22;5938;47.098;15.474;2023-04-24T14:44:16;15.20;99.90
11762;DHT22;5938;47.098;15.474;2023-04-24T14:48:19;15.00;99.90
11762;DHT22;5938;47.098;15.474;2023-04-24T14:52:22;14.70;99.90
11762;DHT22;5938;47.098;15.474;2023-04-24T14:56:26;14.70;99.90
11762;DHT22;5938;47.098;15.474;2023-04-24T15:00:30;14.70;99.90
11762;DHT22;5938;47.098;15.474;2023-04-24T15:04:34;14.40;99.90
11762;DHT22;5938;47.098;15.474;2023-04-24T15:08:38;14.30;99.90
11762;DHT22;5938;47.098;15.474;2023-04-24T15:12:41;14.00;99.90
11762;DHT22;5938;47.098;15.474;2023-04-24T15:16:47;14.00;99.90
11762;DHT22;5938;47.098;15.474;2023-04-24T15:20:50;13.90;99.90
11762;DHT22;5938;47.098;15.474;2023-04-24T15:24:53;13.80;99.90
11762;DHT22;5938;47.098;15.474;2023-04-24T15:28:57;13.60;99.90
11762;DHT22;5938;47.098;15.474;2023-04-24T15:33:02;13.40;99.90
11762;DHT22;5938;47.098;15.474;2023-04-24T15:37:06;13.30;99.90
11762;DHT22;5938;47.098;15.474;2023-04-24T15:41:09;13.10;99.90
11762;DHT22;5938;47.098;15.474;2023-04-24T15:45:13;12.90;99.90
11762;DHT22;5938;47.098;15.474;2023-04-24T15:49:18;12.80;99.90
11762;DHT22;5938;47.098;15.474;2023-04-24T15:53:21;12.60;99.90
11762;DHT22;5938;47.098;15.474;2023-04-24T15:57:25;12.20;99.90
11762;DHT22;5938;47.098;15.474;2023-04-24T16:01:30;11.80;99.90
11762;DHT22;5938;47.098;15.474;2023-04-24T16:05:38;11.50;99.90
11762;DHT22;5938;47.098;15.474;2023-04-24T16:09:42;11.50;99.90
11762;DHT22;5938;47.098;15.474;2023-04-24T16:13:46;11.40;99.90
11762;DHT22;5938;47.098;15.474;2023-04-24T16:17:51;11.30;99.90
11762;DHT22;5938;47.098;15.474;2023-04-24T16:21:56;11.40;99.90
11762;DHT22;5938;47.098;15.474;2023-04-24T16:26:00;11.40;99.90
11762;DHT22;5938;47.098;15.474;2023-04-24T16:30:06;11.30;99.90
11762;DHT22;5938;47.098;15.474;2023-04-24T16:34:09;11.20;99.90
11762;DHT22;5938;47.098;15.474;2023-04-24T16:38:14;11.10;99.90
11762;DHT22;5938;47.098;15.474;2023-04-24T16:42:18;11.00;99.90
11762;DHT22;5938;47.098;15.474;2023-04-24T16:46:22;11.00;99.90
11762;DHT22;5938;47.098;15.474;2023-04-24T16:50:26;10.90;99.90
11762;DHT22;5938;47.098;15.474;2023-04-24T16:54:35;10.70;99.90
11762;DHT22;5938;47.098;15.474;2023-04-24T16:58:38;10.70;99.90
11762;DHT22;5938;47.098;15.474;2023-04-24T17:02:44;10.60;99.90
11762;DHT22;5938;47.098;15.474;2023-04-24T17:06:52;10.60;99.90
11762;DHT22;5938;47.098;15.474;2023-04-24T17:10:57;10.50;99.90
11762;DHT22;5938;47.098;15.474;2023-04-24T17:15:01;10.40;99.90
11762;DHT22;5938;47.098;15.474;2023-04-24T17:19:06;10.40;99.90
11762;DHT22;5938;47.098;15.474;2023-04-24T17:23:24;10.30;99.90
11762;DHT22;5938;47.098;15.474;2023-04-24T17:27:30;10.20;99.90
11762;DHT22;5938;47.098;15.474;2023-04-24T17:31:34;10.00;99.90
11762;DHT22;5938;47.098;15.474;2023-04-24T17:35:39;9.80;99.90
11762;DHT22;5938;47.098;15.474;2023-04-24T17:39:43;9.80;99.90
11762;DHT22;5938;47.098;15.474;2023-04-24T17:43:51;9.70;99.90
11762;DHT22;5938;47.098;15.474;2023-04-24T17:47:56;9.70;99.90
11762;DHT22;5938;47.098;15.474;2023-04-24T17:52:02;9.70;99.90
11762;DHT22;5938;47.098;15.474;2023-04-24T17:56:06;9.60;99.90
11762;DHT22;5938;47.098;15.474;2023-04-24T18:00:13;9.50;99.90
11762;DHT22;5938;47.098;15.474;2023-04-24T18:04:18;9.50;99.90
11762;DHT22;5938;47.098;15.474;2023-04-24T18:08:22;9.50;99.90
11762;DHT22;5938;47.098;15.474;2023-04-24T18:12:29;9.40;99.90
11762;DHT22;5938;47.098;15.474;2023-04-24T18:16:35;9.30;99.90
11762;DHT22;5938;47.098;15.474;2023-04-24T18:20:39;9.30;99.90
11762;DHT22;5938;47.098;15.474;2023-04-24T18:24:43;9.30;99.90
11762;DHT22;5938;47.098;15.474;2023-04-24T18:28:49;9.30;99.90
11762;DHT22;5938;47.098;15.474;2023-04-24T18:32:56;9.30;99.90
11762;DHT22;5938;47.098;15.474;2023-04-24T18:37:02;9.30;99.90
11762;DHT22;5938;47.098;15.474;2023-04-24T18:41:06;9.20;99.90
11762;DHT22;5938;47.098;15.474;2023-04-24T18:45:12;9.10;99.90
11762;DHT22;5938;47.098;15.474;2023-04-24T18:49:24;9.20;99.90
11762;DHT22;5938;47.098;15.474;2023-04-24T18:53:56;9.20;99.90
11762;DHT22;5938;47.098;15.474;2023-04-24T18:58:10;9.10;99.90
11762;DHT22;5938;47.098;15.474;2023-04-24T19:02:17;9.20;99.90
11762;DHT22;5938;47.098;15.474;2023-04-24T19:06:24;9.10;99.90
11762;DHT22;5938;47.098;15.474;2023-04-24T19:10:31;9.20;99.90
11762;DHT22;5938;47.098;15.474;2023-04-24T19:14:38;9.20;99.90
11762;DHT22;5938;47.098;15.474;2023-04-24T19:18:47;9.20;99.90
11762;DHT22;5938;47.098;15.474;2023-04-24T19:22:57;9.10;99.90
11762;DHT22;5938;47.098;15.474;2023-04-24T19:27:04;9.20;99.90
11762;DHT22;5938;47.098;15.474;2023-04-24T19:31:18;9.10;99.90
11762;DHT22;5938;47.098;15.474;2023-04-24T19:35:29;9.00;99.90
11762;DHT22;5938;47.098;15.474;2023-04-24T19:39:39;9.00;99.90
11762;DHT22;5938;47.098;15.474;2023-04-24T19:43:51;9.10;99.90
11762;DHT22;5938;47.098;15.474;2023-04-24T19:48:03;9.00;99.90
11762;DHT22;5938;47.098;15.474;2023-04-24T19:52:12;9.00;99.90
11762;DHT22;5938;47.098;15.474;2023-04-24T19:56:26;8.90;99.90
11762;DHT22;5938;47.098;15.474;2023-04-24T20:00:35;9.00;99.90
11762;DHT22;5938;47.098;15.474;2023-04-24T20:04:44;8.90;99.90
11762;DHT22;5938;47.098;15.474;2023-04-24T20:08:56;8.90;99.90
11762;DHT22;5938;47.098;15.474;2023-04-24T20:13:04;8.80;99.90
11762;DHT22;5938;47.098;15.474;2023-04-24T20:17:10;8.80;99.90
11762;DHT22;5938;47.098;15.474;2023-04-24T20:21:14;8.80;99.90
11762;DHT22;5938;47.098;15.474;2023-04-24T20:25:18;8.80;99.90
11762;DHT22;5938;47.098;15.474;2023-04-24T20:29:23;8.70;99.90
11762;DHT22;5938;47.098;15.474;2023-04-24T20:33:28;8.80;99.90
11762;DHT22;5938;47.098;15.474;2023-04-24T20:37:32;8.80;99.90
11762;DHT22;5938;47.098;15.474;2023-04-24T20:41:36;8.70;99.90
11762;DHT22;5938;47.098;15.474;2023-04-24T20:45:41;8.70;99.90
11762;DHT22;5938;47.098;15.474;2023-04-24T20:49:45;8.70;99.90
11762;DHT22;5938;47.098;15.474;2023-04-24T20:53:50;8.70;99.90
11762;DHT22;5938;47.098;15.474;2023-04-24T20:57:53;8.80;99.90
11762;DHT22;5938;47.098;15.474;2023-04-24T21:01:58;8.80;99.90
11762;DHT22;5938;47.098;15.474;2023-04-24T21:06:02;8.90;99.90
11762;DHT22;5938;47.098;15.474;2023-04-24T21:10:06;8.80;99.90
11762;DHT22;5938;47.098;15.474;2023-04-24T21:14:09;8.80;99.90
11762;DHT22;5938;47.098;15.474;2023-04-24T21:18:14;8.80;99.90
11762;DHT22;5938;47.098;15.474;2023-04-24T21:22:18;8.80;99.90
11762;DHT22;5938;47.098;15.474;2023-04-24T21:26:21;8.70;99.90
11762;DHT22;5938;47.098;15.474;2023-04-24T21:30:24;8.70;99.90
11762;DHT22;5938;47.098;15.474;2023-04-24T21:34:30;8.70;99.90
11762;DHT22;5938;47.098;15.474;2023-04-24T21:38:33;8.70;99.90
11762;DHT22;5938;47.098;15.474;2023-04-24T21:42:36;8.60;99.90
11762;DHT22;5938;47.098;15.474;2023-04-24T21:46:40;8.60;99.90
11762;DHT22;5938;47.098;15.474;2023-04-24T21:50:45;8.60;99.90
11762;DHT22;5938;47.098;15.474;2023-04-24T21:54:49;8.70;99.90
11762;DHT22;5938;47.098;15.474;2023-04-24T21:58:52;8.60;99.90
11762;DHT22;5938;47.098;15.474;2023-04-24T22:02:55;8.60;99.90
11762;DHT22;5938;47.098;15.474;2023-04-24T22:07:00;8.60;99.90
11762;DHT22;5938;47.098;15.474;2023-04-24T22:11:04;8.70;99.90
11762;DHT22;5938;47.098;15.474;2023-04-24T22:15:21;8.60;99.90
11762;DHT22;5938;47.098;15.474;2023-04-24T22:19:24;8.60;99.90
11762;DHT22;5938;47.098;15.474;2023-04-24T22:23:30;8.50;99.90
11762;DHT22;5938;47.098;15.474;2023-04-24T22:27:34;8.60;99.90
11762;DHT22;5938;47.098;15.474;2023-04-24T22:31:37;8.60;99.90
11762;DHT22;5938;47.098;15.474;2023-04-24T22:35:40;8.60;99.90
11762;DHT22;5938;47.098;15.474;2023-04-24T22:39:45;8.50;99.90
11762;DHT22;5938;47.098;15.474;2023-04-24T22:43:49;8.50;99.90
11762;DHT22;5938;47.098;15.474;2023-04-24T22:47:53;8.40;99.90
11762;DHT22;5938;47.098;15.474;2023-04-24T22:51:57;8.50;99.90
11762;DHT22;5938;47.098;15.474;2023-04-24T22:56:02;8.40;99.90
11762;DHT22;5938;47.098;15.474;2023-04-24T23:00:07;8.50;99.90
11762;DHT22;5938;47.098;15.474;2023-04-24T23:04:12;8.40;99.90
11762;DHT22;5938;47.098;15.474;2023-04-24T23:08:15;8.40;99.90
11762;DHT22;5938;47.098;15.474;2023-04-24T23:12:20;8.30;99.90
11762;DHT22;5938;47.098;15.474;2023-04-24T23:16:23;8.30;99.90
11762;DHT22;5938;47.098;15.474;2023-04-24T23:20:27;8.30;99.90
11762;DHT22;5938;47.098;15.474;2023-04-24T23:24:31;8.20;99.90
11762;DHT22;5938;47.098;15.474;2023-04-24T23:28:35;8.30;99.90
11762;DHT22;5938;47.098;15.474;2023-04-24T23:32:41;8.30;99.90
11762;DHT22;5938;47.098;15.474;2023-04-24T23:36:45;8.20;99.90
11762;DHT22;5938;47.098;15.474;2023-04-24T23:40:48;8.20;99.90
11762;DHT22;5938;47.098;15.474;2023-04-24T23:44:54;8.20;99.90
11762;DHT22;5938;47.098;15.474;2023-04-24T23:48:57;8.20;99.90
11762;DHT22;5938;47.098;15.474;2023-04-24T23:53:00;8.20;99.90
11762;DHT22;5938;47.098;15.474;2023-04-24T23:57:04;8.10;99.90
